• Join FlightAware (Why Join?)
  • Login
  • US Flag 
01:05AM EDT


 

Airport Tracker/Info


-or-


 

Live Flight TrackerFlight Track Log ✈ SLI2300 ✈ 09-May-2012 ✈ MMGL / GDL - MMMY / MTY

Flight Track Log - Related Links

Times and Time Zones

All times are in EDT time to prevent confusion due to time zone crossing. See the SLI2300 flight status page for this flight to view local times or setup timezone preferences in your user account.

Time Position Orientation Groundspeed Altitude Reporting Facility
EDT Latitude Longitude Course Direction KTS MPH feet Rate Location/Type
10:58AM 20.9937 -103.0348 29° Northeast  Level Estimated
10:59AM 21.0790 -102.9847 29° Northeast  Level Estimated
11:00AM 21.1642 -102.9345 29° Northeast  Level Estimated
11:01AM 21.2494 -102.8842 29° Northeast  Level Estimated
11:02AM 21.3346 -102.8339 29° Northeast  Level Estimated
11:03AM 21.4198 -102.7836 29° Northeast  Level Estimated
11:04AM 21.5050 -102.7332 29° Northeast  Level Estimated
11:05AM 21.5901 -102.6827 29° Northeast  Level Estimated
11:06AM 21.6753 -102.6321 29° Northeast  Level Estimated
11:07AM 21.7604 -102.5815 29° Northeast  Level Estimated
11:08AM 21.8455 -102.5309 29° Northeast  Level Estimated
11:09AM 21.9306 -102.4802 29° Northeast  Level Estimated
11:10AM 22.0157 -102.4294 29° Northeast  Level Estimated
11:11AM 22.1007 -102.3785 29° Northeast  Level Estimated
11:12AM 22.1858 -102.3277 29° Northeast  Level Estimated
11:13AM 22.2708 -102.2767 29° Northeast  Level Estimated
11:14AM 22.3558 -102.2257 29° Northeast  Level Estimated
11:15AM 22.4408 -102.1746 29° Northeast  Level Estimated
11:16AM 22.5258 -102.1234 29° Northeast  Level Estimated
11:17AM 22.6108 -102.0722 29° Northeast  Level Estimated
11:18AM 22.6957 -102.0209 29° Northeast  Level Estimated
11:19AM 22.7806 -101.9696 29° Northeast  Level Estimated
11:20AM 22.8655 -101.9182 29° Northeast  Level Estimated
11:21AM 22.9505 -101.8667 29° Northeast  Level Estimated
11:22AM 23.0353 -101.8152 29° Northeast  Level Estimated
11:23AM 23.1202 -101.7636 29° Northeast  Level Estimated
11:24AM 23.2050 -101.7119 29° Northeast  Level Estimated
11:25AM 23.2899 -101.6602 29° Northeast  Level Estimated
11:26AM 23.3747 -101.6084 29° Northeast  Level Estimated
11:27AM 23.4595 -101.5566 29° Northeast  Level Estimated
11:28AM 23.5443 -101.5046 29° Northeast  Level Estimated
11:29AM 23.6290 -101.4526 29° Northeast  Level Estimated
11:30AM 23.7138 -101.4006 29° Northeast  Level Estimated
11:31AM 23.7985 -101.3484 29° Northeast  Level Estimated
11:32AM 23.8832 -101.2962 29° Northeast  Level Estimated
11:33AM 23.9679 -101.2440 29° Northeast  Level Estimated
11:34AM 24.0526 -101.1917 29° Northeast  Level Estimated
11:35AM 24.1373 -101.1393 29° Northeast  Level Estimated
11:36AM 24.2219 -101.0868 29° Northeast  Level Estimated
11:37AM 24.3065 -101.0342 30° Northeast  Level Estimated
11:38AM 24.3911 -100.9816 30° Northeast  Level Estimated
11:39AM 24.4757 -100.9289 30° Northeast  Level Estimated
11:40AM 24.5603 -100.8762 30° Northeast  Level Estimated
11:41AM 24.6448 -100.8234 30° Northeast  Level Estimated
11:42AM 24.7294 -100.7705 30° Northeast  Level Estimated
11:43AM 24.8139 -100.7175 30° Northeast  Level Estimated
11:44AM 24.8984 -100.6645 30° Northeast  Level Estimated
11:45AM 24.9829 -100.6114 30° Northeast  Level Estimated
11:46AM 25.0673 -100.5582 30° Northeast  Level Estimated
11:47AM 25.1518 -100.5049 30° Northeast  Level Estimated
11:48AM 25.2362 -100.4516 30° Northeast  Level Estimated
11:49AM 25.3206 -100.3982 30° Northeast  Level Estimated
11:50AM 25.4050 -100.3447 30° Northeast  Level Estimated
11:51AM 25.4893 -100.2911 30° Northeast  Level Estimated
11:52AM 25.5737 -100.2375 30° Northeast  Level Estimated
11:53AM 25.6580 -100.1838 30° Northeast  Level Estimated
11:54AM 25.7423 -100.1300 30° Northeast  Level Estimated
11:55AM 25.8266 -100.0761 210° Southwest  Level Estimated
11:56AM 25.7423 -100.1300 30° Northeast  Level Estimated
11:57AM 25.8266 -100.0761 210° Southwest  Level Estimated
11:58AM 25.7423 -100.1300 30° Northeast  Level Estimated
11:59AM 25.8266 -100.0761 210° Southwest  Level Estimated
12:00PM 25.7423 -100.1300 30° Northeast  Level Estimated
12:01PM 25.8266 -100.0761 210° Southwest  Level Estimated
12:02PM 25.7423 -100.1300 30° Northeast  Level Estimated
12:03PM 25.8266 -100.0761 210° Southwest  Level Estimated
12:04PM 25.7423 -100.1300 30° Northeast  Level Estimated
12:05PM 25.8266 -100.0761 210° Southwest  Level Estimated
12:06PM 25.7423 -100.1300 30° Northeast  Level Estimated
12:07PM 25.8266 -100.0761 210° Southwest  Level Estimated
12:08PM 25.7423 -100.1300 30° Northeast  Level Estimated
12:09PM 25.8266 -100.0761 210° Southwest  Level Estimated
12:10PM 25.7423 -100.1300 210° Southwest  Level Estimated